sensor_id;sensor_type;location;lat;lon;timestamp;P1;durP1;ratioP1;P2;durP2;ratioP2
71435;SDS011;59251;51.326;12.370;2023-12-20T00:01:38;17.20;;;4.65;;
71435;SDS011;59251;51.326;12.370;2023-12-20T00:04:03;12.10;;;4.40;;
71435;SDS011;59251;51.326;12.370;2023-12-20T00:06:30;13.60;;;5.10;;
71435;SDS011;59251;51.326;12.370;2023-12-20T00:08:57;12.45;;;4.85;;
71435;SDS011;59251;51.326;12.370;2023-12-20T00:11:24;13.43;;;5.85;;
71435;SDS011;59251;51.326;12.370;2023-12-20T00:13:50;12.07;;;4.45;;
71435;SDS011;59251;51.326;12.370;2023-12-20T00:16:19;12.33;;;4.17;;
71435;SDS011;59251;51.326;12.370;2023-12-20T00:18:46;10.07;;;4.13;;
71435;SDS011;59251;51.326;12.370;2023-12-20T00:21:12;9.82;;;3.85;;
71435;SDS011;59251;51.326;12.370;2023-12-20T00:23:39;8.63;;;3.35;;
71435;SDS011;59251;51.326;12.370;2023-12-20T00:26:06;12.07;;;4.30;;
71435;SDS011;59251;51.326;12.370;2023-12-20T00:28:33;9.70;;;3.90;;
71435;SDS011;59251;51.326;12.370;2023-12-20T00:30:59;9.20;;;3.58;;
71435;SDS011;59251;51.326;12.370;2023-12-20T00:33:27;9.27;;;3.08;;
71435;SDS011;59251;51.326;12.370;2023-12-20T00:35:54;7.82;;;2.70;;
71435;SDS011;59251;51.326;12.370;2023-12-20T00:38:20;10.07;;;2.95;;
71435;SDS011;59251;51.326;12.370;2023-12-20T00:40:48;7.30;;;2.13;;
71435;SDS011;59251;51.326;12.370;2023-12-20T00:43:14;7.82;;;2.60;;
71435;SDS011;59251;51.326;12.370;2023-12-20T00:45:41;8.43;;;2.50;;
71435;SDS011;59251;51.326;12.370;2023-12-20T00:48:08;8.48;;;2.80;;
71435;SDS011;59251;51.326;12.370;2023-12-20T00:50:36;8.55;;;2.92;;
71435;SDS011;59251;51.326;12.370;2023-12-20T00:53:03;7.63;;;2.73;;
71435;SDS011;59251;51.326;12.370;2023-12-20T00:55:30;7.00;;;1.85;;
71435;SDS011;59251;51.326;12.370;2023-12-20T00:57:57;8.38;;;2.03;;
71435;SDS011;59251;51.326;12.370;2023-12-20T01:00:24;9.00;;;2.10;;
71435;SDS011;59251;51.326;12.370;2023-12-20T01:02:51;7.57;;;2.53;;
71435;SDS011;59251;51.326;12.370;2023-12-20T01:05:17;7.53;;;2.10;;
71435;SDS011;59251;51.326;12.370;2023-12-20T01:07:45;5.85;;;1.40;;
71435;SDS011;59251;51.326;12.370;2023-12-20T01:10:12;6.28;;;1.73;;
71435;SDS011;59251;51.326;12.370;2023-12-20T01:12:39;6.40;;;1.73;;
71435;SDS011;59251;51.326;12.370;2023-12-20T01:15:05;6.55;;;1.77;;
71435;SDS011;59251;51.326;12.370;2023-12-20T01:17:32;6.55;;;1.85;;
71435;SDS011;59251;51.326;12.370;2023-12-20T01:19:59;5.65;;;1.40;;
71435;SDS011;59251;51.326;12.370;2023-12-20T01:22:26;7.55;;;1.88;;
71435;SDS011;59251;51.326;12.370;2023-12-20T01:24:54;6.07;;;1.43;;
71435;SDS011;59251;51.326;12.370;2023-12-20T01:27:20;7.13;;;1.70;;
71435;SDS011;59251;51.326;12.370;2023-12-20T01:29:47;6.75;;;1.90;;
71435;SDS011;59251;51.326;12.370;2023-12-20T01:32:14;5.45;;;1.40;;
71435;SDS011;59251;51.326;12.370;2023-12-20T01:34:40;6.25;;;1.60;;
71435;SDS011;59251;51.326;12.370;2023-12-20T01:37:07;4.90;;;1.17;;
71435;SDS011;59251;51.326;12.370;2023-12-20T01:39:34;6.88;;;2.05;;
71435;SDS011;59251;51.326;12.370;2023-12-20T01:42:02;6.15;;;1.73;;
71435;SDS011;59251;51.326;12.370;2023-12-20T01:44:29;6.63;;;1.70;;
71435;SDS011;59251;51.326;12.370;2023-12-20T01:46:55;6.55;;;1.80;;
71435;SDS011;59251;51.326;12.370;2023-12-20T01:49:23;5.90;;;1.50;;
71435;SDS011;59251;51.326;12.370;2023-12-20T01:51:50;4.30;;;1.23;;
71435;SDS011;59251;51.326;12.370;2023-12-20T01:54:16;6.22;;;1.75;;
71435;SDS011;59251;51.326;12.370;2023-12-20T01:56:45;6.20;;;1.65;;
71435;SDS011;59251;51.326;12.370;2023-12-20T01:59:13;6.70;;;1.88;;
71435;SDS011;59251;51.326;12.370;2023-12-20T02:01:40;6.13;;;1.70;;
71435;SDS011;59251;51.326;12.370;2023-12-20T02:04:07;5.13;;;1.25;;
71435;SDS011;59251;51.326;12.370;2023-12-20T02:06:34;5.00;;;1.05;;
71435;SDS011;59251;51.326;12.370;2023-12-20T02:09:00;6.72;;;1.50;;
71435;SDS011;59251;51.326;12.370;2023-12-20T02:11:27;6.47;;;2.08;;
71435;SDS011;59251;51.326;12.370;2023-12-20T02:13:54;5.23;;;1.30;;
71435;SDS011;59251;51.326;12.370;2023-12-20T02:16:22;5.63;;;1.67;;
71435;SDS011;59251;51.326;12.370;2023-12-20T02:18:49;5.47;;;1.42;;
71435;SDS011;59251;51.326;12.370;2023-12-20T02:21:16;6.03;;;1.50;;
71435;SDS011;59251;51.326;12.370;2023-12-20T02:23:44;7.60;;;1.80;;
71435;SDS011;59251;51.326;12.370;2023-12-20T02:26:11;6.20;;;1.57;;
71435;SDS011;59251;51.326;12.370;2023-12-20T02:28:39;6.95;;;1.38;;
71435;SDS011;59251;51.326;12.370;2023-12-20T02:31:05;5.97;;;1.58;;
71435;SDS011;59251;51.326;12.370;2023-12-20T02:33:32;5.65;;;1.48;;
71435;SDS011;59251;51.326;12.370;2023-12-20T02:35:59;6.13;;;1.42;;
71435;SDS011;59251;51.326;12.370;2023-12-20T02:38:25;6.20;;;1.60;;
71435;SDS011;59251;51.326;12.370;2023-12-20T02:40:53;6.50;;;1.50;;
71435;SDS011;59251;51.326;12.370;2023-12-20T02:43:20;6.75;;;1.67;;
71435;SDS011;59251;51.326;12.370;2023-12-20T02:45:47;5.00;;;1.15;;
71435;SDS011;59251;51.326;12.370;2023-12-20T02:48:13;5.80;;;1.63;;
71435;SDS011;59251;51.326;12.370;2023-12-20T02:50:40;5.10;;;0.90;;
71435;SDS011;59251;51.326;12.370;2023-12-20T02:53:07;5.75;;;1.33;;
71435;SDS011;59251;51.326;12.370;2023-12-20T02:55:33;6.03;;;1.13;;
71435;SDS011;59251;51.326;12.370;2023-12-20T02:58:01;5.78;;;1.30;;
71435;SDS011;59251;51.326;12.370;2023-12-20T03:00:28;6.07;;;1.40;;
71435;SDS011;59251;51.326;12.370;2023-12-20T03:02:55;5.73;;;1.37;;
71435;SDS011;59251;51.326;12.370;2023-12-20T03:05:21;5.13;;;1.30;;
71435;SDS011;59251;51.326;12.370;2023-12-20T03:07:48;6.45;;;1.27;;
71435;SDS011;59251;51.326;12.370;2023-12-20T03:10:15;5.72;;;1.33;;
71435;SDS011;59251;51.326;12.370;2023-12-20T03:12:41;5.18;;;1.38;;
71435;SDS011;59251;51.326;12.370;2023-12-20T03:15:10;5.90;;;1.33;;
71435;SDS011;59251;51.326;12.370;2023-12-20T03:17:36;5.05;;;1.05;;
71435;SDS011;59251;51.326;12.370;2023-12-20T03:20:03;6.63;;;1.25;;
71435;SDS011;59251;51.326;12.370;2023-12-20T03:22:31;5.90;;;1.27;;
71435;SDS011;59251;51.326;12.370;2023-12-20T03:24:57;5.63;;;1.20;;
71435;SDS011;59251;51.326;12.370;2023-12-20T03:27:24;6.50;;;1.10;;
71435;SDS011;59251;51.326;12.370;2023-12-20T03:29:51;6.47;;;1.20;;
71435;SDS011;59251;51.326;12.370;2023-12-20T03:32:19;6.63;;;1.05;;
71435;SDS011;59251;51.326;12.370;2023-12-20T03:34:45;4.88;;;1.00;;
71435;SDS011;59251;51.326;12.370;2023-12-20T03:37:13;5.63;;;1.10;;
71435;SDS011;59251;51.326;12.370;2023-12-20T03:39:40;6.30;;;1.00;;
71435;SDS011;59251;51.326;12.370;2023-12-20T03:42:06;4.88;;;1.20;;
71435;SDS011;59251;51.326;12.370;2023-12-20T03:44:33;5.78;;;1.13;;
71435;SDS011;59251;51.326;12.370;2023-12-20T03:47:00;5.53;;;1.30;;
71435;SDS011;59251;51.326;12.370;2023-12-20T03:49:28;5.82;;;1.40;;
71435;SDS011;59251;51.326;12.370;2023-12-20T03:51:54;5.00;;;1.23;;
71435;SDS011;59251;51.326;12.370;2023-12-20T03:54:21;4.82;;;1.05;;
71435;SDS011;59251;51.326;12.370;2023-12-20T03:56:48;6.30;;;1.30;;
71435;SDS011;59251;51.326;12.370;2023-12-20T03:59:14;4.82;;;1.10;;
71435;SDS011;59251;51.326;12.370;2023-12-20T04:01:42;6.28;;;1.80;;
71435;SDS011;59251;51.326;12.370;2023-12-20T04:04:09;6.17;;;1.37;;
71435;SDS011;59251;51.326;12.370;2023-12-20T04:06:37;6.63;;;1.90;;
71435;SDS011;59251;51.326;12.370;2023-12-20T04:09:04;5.78;;;1.70;;
71435;SDS011;59251;51.326;12.370;2023-12-20T04:11:31;6.32;;;1.70;;
71435;SDS011;59251;51.326;12.370;2023-12-20T04:13:57;6.57;;;1.80;;
71435;SDS011;59251;51.326;12.370;2023-12-20T04:16:24;8.33;;;2.60;;
71435;SDS011;59251;51.326;12.370;2023-12-20T04:18:50;6.43;;;2.05;;
71435;SDS011;59251;51.326;12.370;2023-12-20T04:21:17;7.65;;;2.55;;
71435;SDS011;59251;51.326;12.370;2023-12-20T04:23:45;7.25;;;1.92;;
71435;SDS011;59251;51.326;12.370;2023-12-20T04:26:12;6.13;;;1.85;;
71435;SDS011;59251;51.326;12.370;2023-12-20T04:28:38;5.50;;;1.73;;
71435;SDS011;59251;51.326;12.370;2023-12-20T04:31:05;6.88;;;2.28;;
71435;SDS011;59251;51.326;12.370;2023-12-20T04:33:32;6.95;;;1.85;;
71435;SDS011;59251;51.326;12.370;2023-12-20T04:35:58;6.40;;;1.83;;
71435;SDS011;59251;51.326;12.370;2023-12-20T04:38:26;6.75;;;1.98;;
71435;SDS011;59251;51.326;12.370;2023-12-20T04:40:54;7.10;;;2.30;;
71435;SDS011;59251;51.326;12.370;2023-12-20T04:43:20;6.78;;;2.08;;
71435;SDS011;59251;51.326;12.370;2023-12-20T04:45:47;7.25;;;2.00;;
71435;SDS011;59251;51.326;12.370;2023-12-20T04:48:14;7.22;;;1.98;;
71435;SDS011;59251;51.326;12.370;2023-12-20T04:50:40;7.55;;;2.25;;
71435;SDS011;59251;51.326;12.370;2023-12-20T04:53:07;7.77;;;2.70;;
71435;SDS011;59251;51.326;12.370;2023-12-20T04:55:34;8.32;;;2.88;;
71435;SDS011;59251;51.326;12.370;2023-12-20T04:58:02;7.88;;;2.50;;
71435;SDS011;59251;51.326;12.370;2023-12-20T05:00:28;8.93;;;3.10;;
71435;SDS011;59251;51.326;12.370;2023-12-20T05:02:55;7.07;;;2.55;;
71435;SDS011;59251;51.326;12.370;2023-12-20T05:05:22;8.83;;;2.70;;
71435;SDS011;59251;51.326;12.370;2023-12-20T05:07:48;8.88;;;3.10;;
71435;SDS011;59251;51.326;12.370;2023-12-20T05:10:15;9.10;;;3.33;;
71435;SDS011;59251;51.326;12.370;2023-12-20T05:12:42;7.85;;;2.92;;
71435;SDS011;59251;51.326;12.370;2023-12-20T05:15:10;8.57;;;3.40;;
71435;SDS011;59251;51.326;12.370;2023-12-20T05:17:37;9.00;;;2.53;;
71435;SDS011;59251;51.326;12.370;2023-12-20T05:20:04;9.20;;;2.92;;
71435;SDS011;59251;51.326;12.370;2023-12-20T05:22:31;8.55;;;2.90;;
71435;SDS011;59251;51.326;12.370;2023-12-20T05:24:58;8.60;;;2.90;;
71435;SDS011;59251;51.326;12.370;2023-12-20T05:27:25;7.82;;;2.60;;
71435;SDS011;59251;51.326;12.370;2023-12-20T05:29:51;8.13;;;2.83;;
71435;SDS011;59251;51.326;12.370;2023-12-20T05:32:19;7.47;;;1.85;;
71435;SDS011;59251;51.326;12.370;2023-12-20T05:34:46;8.40;;;2.85;;
71435;SDS011;59251;51.326;12.370;2023-12-20T05:37:13;7.43;;;2.70;;
71435;SDS011;59251;51.326;12.370;2023-12-20T05:39:39;9.23;;;3.10;;
71435;SDS011;59251;51.326;12.370;2023-12-20T05:42:06;7.83;;;2.80;;
71435;SDS011;59251;51.326;12.370;2023-12-20T05:44:33;8.68;;;3.17;;
71435;SDS011;59251;51.326;12.370;2023-12-20T05:46:59;10.02;;;3.22;;
71435;SDS011;59251;51.326;12.370;2023-12-20T05:49:27;7.60;;;2.85;;
71435;SDS011;59251;51.326;12.370;2023-12-20T05:51:54;8.65;;;2.85;;
71435;SDS011;59251;51.326;12.370;2023-12-20T05:54:21;7.87;;;2.73;;
71435;SDS011;59251;51.326;12.370;2023-12-20T05:56:48;9.13;;;2.90;;
71435;SDS011;59251;51.326;12.370;2023-12-20T05:59:15;8.90;;;2.90;;
71435;SDS011;59251;51.326;12.370;2023-12-20T06:01:42;9.07;;;2.80;;
71435;SDS011;59251;51.326;12.370;2023-12-20T06:04:09;8.50;;;2.85;;
71435;SDS011;59251;51.326;12.370;2023-12-20T06:06:41;7.53;;;2.93;;
71435;SDS011;59251;51.326;12.370;2023-12-20T06:09:08;7.72;;;2.78;;
71435;SDS011;59251;51.326;12.370;2023-12-20T06:11:34;7.18;;;2.70;;
71435;SDS011;59251;51.326;12.370;2023-12-20T06:14:01;8.38;;;2.72;;
71435;SDS011;59251;51.326;12.370;2023-12-20T06:16:28;9.43;;;2.70;;
71435;SDS011;59251;51.326;12.370;2023-12-20T06:18:54;7.30;;;2.60;;
71435;SDS011;59251;51.326;12.370;2023-12-20T06:21:21;7.80;;;2.40;;
71435;SDS011;59251;51.326;12.370;2023-12-20T06:23:49;7.97;;;2.63;;
71435;SDS011;59251;51.326;12.370;2023-12-20T06:26:16;9.90;;;2.90;;
71435;SDS011;59251;51.326;12.370;2023-12-20T06:28:42;10.35;;;2.88;;
71435;SDS011;59251;51.326;12.370;2023-12-20T06:31:09;8.80;;;2.60;;
71435;SDS011;59251;51.326;12.370;2023-12-20T06:33:36;8.48;;;2.50;;
71435;SDS011;59251;51.326;12.370;2023-12-20T06:36:03;10.02;;;2.70;;
71435;SDS011;59251;51.326;12.370;2023-12-20T06:38:30;8.13;;;2.47;;
71435;SDS011;59251;51.326;12.370;2023-12-20T06:40:58;6.78;;;2.03;;
71435;SDS011;59251;51.326;12.370;2023-12-20T06:43:25;6.07;;;1.80;;
71435;SDS011;59251;51.326;12.370;2023-12-20T06:45:51;8.23;;;2.70;;
71435;SDS011;59251;51.326;12.370;2023-12-20T06:48:18;7.25;;;2.42;;
71435;SDS011;59251;51.326;12.370;2023-12-20T06:50:45;7.65;;;2.80;;
71435;SDS011;59251;51.326;12.370;2023-12-20T06:53:12;8.40;;;2.55;;
71435;SDS011;59251;51.326;12.370;2023-12-20T06:55:39;8.20;;;2.60;;
71435;SDS011;59251;51.326;12.370;2023-12-20T06:58:07;6.45;;;1.80;;
71435;SDS011;59251;51.326;12.370;2023-12-20T07:00:34;8.13;;;2.63;;
71435;SDS011;59251;51.326;12.370;2023-12-20T07:03:00;9.55;;;2.28;;
71435;SDS011;59251;51.326;12.370;2023-12-20T07:05:27;7.60;;;2.60;;
71435;SDS011;59251;51.326;12.370;2023-12-20T07:07:54;7.43;;;2.23;;
71435;SDS011;59251;51.326;12.370;2023-12-20T07:10:20;8.60;;;2.45;;
71435;SDS011;59251;51.326;12.370;2023-12-20T07:12:47;9.18;;;2.80;;
71435;SDS011;59251;51.326;12.370;2023-12-20T07:15:15;8.05;;;2.50;;
71435;SDS011;59251;51.326;12.370;2023-12-20T07:17:42;8.65;;;2.80;;
71435;SDS011;59251;51.326;12.370;2023-12-20T07:20:09;8.07;;;2.50;;
71435;SDS011;59251;51.326;12.370;2023-12-20T07:22:37;6.07;;;1.88;;
71435;SDS011;59251;51.326;12.370;2023-12-20T07:25:04;7.32;;;1.52;;
71435;SDS011;59251;51.326;12.370;2023-12-20T07:27:31;6.43;;;1.88;;
71435;SDS011;59251;51.326;12.370;2023-12-20T07:29:58;5.63;;;1.00;;
71435;SDS011;59251;51.326;12.370;2023-12-20T07:32:26;6.83;;;1.27;;
71435;SDS011;59251;51.326;12.370;2023-12-20T07:34:53;7.35;;;1.40;;
71435;SDS011;59251;51.326;12.370;2023-12-20T07:37:20;4.68;;;0.80;;
71435;SDS011;59251;51.326;12.370;2023-12-20T07:39:46;5.57;;;1.00;;
71435;SDS011;59251;51.326;12.370;2023-12-20T07:42:14;12.20;;;1.40;;
71435;SDS011;59251;51.326;12.370;2023-12-20T07:44:41;7.67;;;1.20;;
71435;SDS011;59251;51.326;12.370;2023-12-20T07:47:07;7.85;;;1.30;;
71435;SDS011;59251;51.326;12.370;2023-12-20T07:49:35;6.95;;;1.30;;
71435;SDS011;59251;51.326;12.370;2023-12-20T07:52:02;7.97;;;1.10;;
71435;SDS011;59251;51.326;12.370;2023-12-20T07:54:29;5.78;;;1.30;;
71435;SDS011;59251;51.326;12.370;2023-12-20T07:56:56;5.93;;;0.80;;
71435;SDS011;59251;51.326;12.370;2023-12-20T07:59:23;6.22;;;0.90;;
71435;SDS011;59251;51.326;12.370;2023-12-20T08:01:50;7.90;;;1.10;;
71435;SDS011;59251;51.326;12.370;2023-12-20T08:04:17;9.10;;;1.15;;
71435;SDS011;59251;51.326;12.370;2023-12-20T08:06:45;8.15;;;1.10;;
71435;SDS011;59251;51.326;12.370;2023-12-20T08:09:11;8.43;;;1.10;;
71435;SDS011;59251;51.326;12.370;2023-12-20T08:11:38;6.05;;;0.98;;
71435;SDS011;59251;51.326;12.370;2023-12-20T08:14:05;5.45;;;1.20;;
71435;SDS011;59251;51.326;12.370;2023-12-20T08:16:31;7.47;;;1.10;;
71435;SDS011;59251;51.326;12.370;2023-12-20T08:18:58;7.80;;;1.02;;
71435;SDS011;59251;51.326;12.370;2023-12-20T08:21:25;6.77;;;0.93;;
71435;SDS011;59251;51.326;12.370;2023-12-20T08:23:53;6.68;;;1.30;;
71435;SDS011;59251;51.326;12.370;2023-12-20T08:26:19;6.60;;;1.05;;
71435;SDS011;59251;51.326;12.370;2023-12-20T08:28:47;7.72;;;1.35;;
71435;SDS011;59251;51.326;12.370;2023-12-20T08:31:15;8.82;;;1.20;;
71435;SDS011;59251;51.326;12.370;2023-12-20T08:36:09;6.18;;;0.70;;
71435;SDS011;59251;51.326;12.370;2023-12-20T08:38:36;9.30;;;1.38;;
71435;SDS011;59251;51.326;12.370;2023-12-20T08:41:04;8.73;;;1.25;;
71435;SDS011;59251;51.326;12.370;2023-12-20T08:43:31;6.55;;;1.00;;
71435;SDS011;59251;51.326;12.370;2023-12-20T08:45:58;7.40;;;1.10;;
71435;SDS011;59251;51.326;12.370;2023-12-20T08:48:25;5.95;;;1.02;;
71435;SDS011;59251;51.326;12.370;2023-12-20T08:50:51;6.93;;;1.30;;
71435;SDS011;59251;51.326;12.370;2023-12-20T08:53:18;5.22;;;1.13;;
71435;SDS011;59251;51.326;12.370;2023-12-20T08:55:45;9.07;;;1.30;;
71435;SDS011;59251;51.326;12.370;2023-12-20T08:58:14;4.67;;;1.07;;
71435;SDS011;59251;51.326;12.370;2023-12-20T09:00:40;6.20;;;0.85;;
71435;SDS011;59251;51.326;12.370;2023-12-20T09:03:07;4.60;;;0.73;;
71435;SDS011;59251;51.326;12.370;2023-12-20T09:05:34;7.35;;;1.10;;
71435;SDS011;59251;51.326;12.370;2023-12-20T09:08:00;4.72;;;1.05;;
71435;SDS011;59251;51.326;12.370;2023-12-20T09:10:27;5.77;;;0.97;;
71435;SDS011;59251;51.326;12.370;2023-12-20T09:12:54;7.35;;;1.23;;
71435;SDS011;59251;51.326;12.370;2023-12-20T09:15:24;10.73;;;1.83;;
71435;SDS011;59251;51.326;12.370;2023-12-20T09:17:51;7.97;;;1.02;;
71435;SDS011;59251;51.326;12.370;2023-12-20T09:20:18;10.45;;;1.60;;
71435;SDS011;59251;51.326;12.370;2023-12-20T09:22:45;6.23;;;1.30;;
71435;SDS011;59251;51.326;12.370;2023-12-20T09:25:12;5.95;;;1.27;;
71435;SDS011;59251;51.326;12.370;2023-12-20T09:27:39;7.38;;;1.30;;
71435;SDS011;59251;51.326;12.370;2023-12-20T09:30:06;7.05;;;1.60;;
71435;SDS011;59251;51.326;12.370;2023-12-20T09:32:35;11.07;;;1.30;;
71435;SDS011;59251;51.326;12.370;2023-12-20T09:35:02;7.17;;;0.87;;
71435;SDS011;59251;51.326;12.370;2023-12-20T09:37:30;7.13;;;1.40;;
71435;SDS011;59251;51.326;12.370;2023-12-20T09:39:57;7.82;;;1.10;;
71435;SDS011;59251;51.326;12.370;2023-12-20T09:42:24;8.73;;;1.15;;
71435;SDS011;59251;51.326;12.370;2023-12-20T09:44:59;6.45;;;1.35;;
71435;SDS011;59251;51.326;12.370;2023-12-20T09:47:28;8.53;;;1.60;;
71435;SDS011;59251;51.326;12.370;2023-12-20T09:49:57;5.40;;;1.17;;
71435;SDS011;59251;51.326;12.370;2023-12-20T09:52:23;6.35;;;1.10;;
71435;SDS011;59251;51.326;12.370;2023-12-20T09:54:51;6.40;;;1.00;;
71435;SDS011;59251;51.326;12.370;2023-12-20T09:57:20;5.25;;;1.02;;
71435;SDS011;59251;51.326;12.370;2023-12-20T09:59:47;4.67;;;0.97;;
71435;SDS011;59251;51.326;12.370;2023-12-20T10:02:13;5.70;;;0.88;;
71435;SDS011;59251;51.326;12.370;2023-12-20T10:04:41;6.43;;;1.27;;
71435;SDS011;59251;51.326;12.370;2023-12-20T10:07:15;5.83;;;1.10;;
71435;SDS011;59251;51.326;12.370;2023-12-20T10:09:42;5.47;;;1.02;;
71435;SDS011;59251;51.326;12.370;2023-12-20T10:12:10;4.63;;;0.98;;
71435;SDS011;59251;51.326;12.370;2023-12-20T10:14:38;5.88;;;1.05;;
71435;SDS011;59251;51.326;12.370;2023-12-20T10:17:05;6.97;;;1.17;;
71435;SDS011;59251;51.326;12.370;2023-12-20T10:19:33;7.33;;;0.83;;
71435;SDS011;59251;51.326;12.370;2023-12-20T10:22:00;9.10;;;1.90;;
71435;SDS011;59251;51.326;12.370;2023-12-20T10:24:29;8.60;;;1.58;;
71435;SDS011;59251;51.326;12.370;2023-12-20T10:27:02;7.45;;;1.55;;
71435;SDS011;59251;51.326;12.370;2023-12-20T10:29:33;5.68;;;1.00;;
71435;SDS011;59251;51.326;12.370;2023-12-20T10:32:01;6.17;;;1.10;;
71435;SDS011;59251;51.326;12.370;2023-12-20T10:34:48;7.82;;;1.40;;
71435;SDS011;59251;51.326;12.370;2023-12-20T10:37:14;7.65;;;1.27;;
71435;SDS011;59251;51.326;12.370;2023-12-20T10:39:43;7.70;;;1.20;;
71435;SDS011;59251;51.326;12.370;2023-12-20T10:42:09;12.60;;;1.50;;
71435;SDS011;59251;51.326;12.370;2023-12-20T10:44:38;6.20;;;1.13;;
71435;SDS011;59251;51.326;12.370;2023-12-20T10:47:05;8.60;;;1.48;;
71435;SDS011;59251;51.326;12.370;2023-12-20T10:49:33;5.13;;;1.00;;
71435;SDS011;59251;51.326;12.370;2023-12-20T10:52:02;5.80;;;0.95;;
71435;SDS011;59251;51.326;12.370;2023-12-20T10:54:31;8.52;;;1.40;;
71435;SDS011;59251;51.326;12.370;2023-12-20T10:57:00;6.23;;;1.17;;
71435;SDS011;59251;51.326;12.370;2023-12-20T10:59:32;10.23;;;1.60;;
71435;SDS011;59251;51.326;12.370;2023-12-20T11:02:00;8.63;;;1.02;;
71435;SDS011;59251;51.326;12.370;2023-12-20T11:04:31;6.53;;;1.20;;
71435;SDS011;59251;51.326;12.370;2023-12-20T11:07:05;7.70;;;0.88;;
71435;SDS011;59251;51.326;12.370;2023-12-20T11:09:40;8.40;;;0.90;;
71435;SDS011;59251;51.326;12.370;2023-12-20T11:12:15;8.15;;;0.95;;
71435;SDS011;59251;51.326;12.370;2023-12-20T11:14:48;6.75;;;1.00;;
71435;SDS011;59251;51.326;12.370;2023-12-20T11:17:17;8.52;;;0.90;;
71435;SDS011;59251;51.326;12.370;2023-12-20T11:22:36;5.63;;;1.30;;
71435;SDS011;59251;51.326;12.370;2023-12-20T11:25:07;4.13;;;0.73;;
71435;SDS011;59251;51.326;12.370;2023-12-20T11:27:35;5.93;;;0.90;;
71435;SDS011;59251;51.326;12.370;2023-12-20T11:30:04;5.90;;;1.08;;
71435;SDS011;59251;51.326;12.370;2023-12-20T11:32:33;5.05;;;0.70;;
71435;SDS011;59251;51.326;12.370;2023-12-20T11:35:01;6.30;;;0.70;;
71435;SDS011;59251;51.326;12.370;2023-12-20T11:37:43;7.10;;;1.20;;
71435;SDS011;59251;51.326;12.370;2023-12-20T11:40:12;7.65;;;1.10;;
71435;SDS011;59251;51.326;12.370;2023-12-20T11:42:42;5.38;;;0.70;;
71435;SDS011;59251;51.326;12.370;2023-12-20T11:45:10;7.43;;;1.08;;
71435;SDS011;59251;51.326;12.370;2023-12-20T11:47:40;8.30;;;1.33;;
71435;SDS011;59251;51.326;12.370;2023-12-20T11:50:07;9.27;;;0.85;;
71435;SDS011;59251;51.326;12.370;2023-12-20T11:52:34;6.13;;;1.02;;
71435;SDS011;59251;51.326;12.370;2023-12-20T11:55:01;6.50;;;1.00;;
71435;SDS011;59251;51.326;12.370;2023-12-20T11:57:28;5.88;;;1.05;;
71435;SDS011;59251;51.326;12.370;2023-12-20T11:59:57;7.07;;;1.10;;
71435;SDS011;59251;51.326;12.370;2023-12-20T12:02:23;5.25;;;0.73;;
71435;SDS011;59251;51.326;12.370;2023-12-20T12:04:50;4.63;;;1.08;;
71435;SDS011;59251;51.326;12.370;2023-12-20T12:07:17;8.15;;;1.17;;
71435;SDS011;59251;51.326;12.370;2023-12-20T12:09:44;6.35;;;1.00;;
71435;SDS011;59251;51.326;12.370;2023-12-20T12:12:11;8.20;;;1.30;;
71435;SDS011;59251;51.326;12.370;2023-12-20T12:14:38;6.03;;;1.33;;
71435;SDS011;59251;51.326;12.370;2023-12-20T12:17:11;10.60;;;3.33;;
71435;SDS011;59251;51.326;12.370;2023-12-20T12:19:38;5.75;;;1.00;;
71435;SDS011;59251;51.326;12.370;2023-12-20T12:22:05;7.88;;;1.20;;
71435;SDS011;59251;51.326;12.370;2023-12-20T12:24:33;6.43;;;1.60;;
71435;SDS011;59251;51.326;12.370;2023-12-20T12:27:00;5.72;;;1.25;;
71435;SDS011;59251;51.326;12.370;2023-12-20T12:29:27;5.35;;;1.23;;
71435;SDS011;59251;51.326;12.370;2023-12-20T12:31:54;8.70;;;1.02;;
71435;SDS011;59251;51.326;12.370;2023-12-20T12:34:23;7.78;;;1.30;;
71435;SDS011;59251;51.326;12.370;2023-12-20T12:36:51;4.10;;;0.80;;
71435;SDS011;59251;51.326;12.370;2023-12-20T12:39:19;8.13;;;1.20;;
71435;SDS011;59251;51.326;12.370;2023-12-20T12:41:46;7.90;;;1.30;;
71435;SDS011;59251;51.326;12.370;2023-12-20T12:44:13;5.80;;;1.13;;
71435;SDS011;59251;51.326;12.370;2023-12-20T12:46:39;5.90;;;1.02;;
71435;SDS011;59251;51.326;12.370;2023-12-20T12:49:06;6.13;;;0.97;;
71435;SDS011;59251;51.326;12.370;2023-12-20T12:51:34;6.50;;;0.95;;
71435;SDS011;59251;51.326;12.370;2023-12-20T12:54:01;5.97;;;0.90;;
71435;SDS011;59251;51.326;12.370;2023-12-20T12:56:28;5.72;;;0.70;;
71435;SDS011;59251;51.326;12.370;2023-12-20T12:58:55;5.07;;;0.75;;
71435;SDS011;59251;51.326;12.370;2023-12-20T13:01:22;8.33;;;0.87;;
71435;SDS011;59251;51.326;12.370;2023-12-20T13:03:49;3.70;;;0.63;;
71435;SDS011;59251;51.326;12.370;2023-12-20T13:06:15;4.65;;;0.80;;
71435;SDS011;59251;51.326;12.370;2023-12-20T13:08:44;4.68;;;0.60;;
71435;SDS011;59251;51.326;12.370;2023-12-20T13:11:11;4.97;;;0.90;;
71435;SDS011;59251;51.326;12.370;2023-12-20T13:13:38;4.10;;;0.80;;
71435;SDS011;59251;51.326;12.370;2023-12-20T13:16:05;7.40;;;1.05;;
71435;SDS011;59251;51.326;12.370;2023-12-20T13:18:31;5.88;;;0.90;;
71435;SDS011;59251;51.326;12.370;2023-12-20T13:20:58;7.32;;;1.38;;
71435;SDS011;59251;51.326;12.370;2023-12-20T13:23:25;5.22;;;0.73;;
71435;SDS011;59251;51.326;12.370;2023-12-20T13:25:53;7.33;;;1.73;;
71435;SDS011;59251;51.326;12.370;2023-12-20T13:28:20;3.38;;;0.63;;
71435;SDS011;59251;51.326;12.370;2023-12-20T13:30:46;6.60;;;0.90;;
71435;SDS011;59251;51.326;12.370;2023-12-20T13:33:13;4.30;;;0.70;;
71435;SDS011;59251;51.326;12.370;2023-12-20T13:35:40;7.15;;;1.10;;
71435;SDS011;59251;51.326;12.370;2023-12-20T13:38:07;4.93;;;0.87;;
71435;SDS011;59251;51.326;12.370;2023-12-20T13:40:34;7.25;;;0.93;;
71435;SDS011;59251;51.326;12.370;2023-12-20T13:43:02;5.00;;;0.70;;
71435;SDS011;59251;51.326;12.370;2023-12-20T13:45:29;5.10;;;0.80;;
71435;SDS011;59251;51.326;12.370;2023-12-20T13:47:55;5.93;;;0.73;;
71435;SDS011;59251;51.326;12.370;2023-12-20T13:50:24;5.43;;;0.90;;
71435;SDS011;59251;51.326;12.370;2023-12-20T13:52:51;4.10;;;0.80;;
71435;SDS011;59251;51.326;12.370;2023-12-20T13:55:18;4.80;;;0.60;;
71435;SDS011;59251;51.326;12.370;2023-12-20T13:57:47;4.55;;;0.80;;
71435;SDS011;59251;51.326;12.370;2023-12-20T14:00:15;5.70;;;1.08;;
71435;SDS011;59251;51.326;12.370;2023-12-20T14:02:42;5.37;;;0.93;;
71435;SDS011;59251;51.326;12.370;2023-12-20T14:05:09;4.88;;;0.63;;
71435;SDS011;59251;51.326;12.370;2023-12-20T14:07:36;9.30;;;0.98;;
71435;SDS011;59251;51.326;12.370;2023-12-20T14:10:03;5.90;;;0.77;;
71435;SDS011;59251;51.326;12.370;2023-12-20T14:12:30;6.93;;;1.00;;
71435;SDS011;59251;51.326;12.370;2023-12-20T14:15:00;3.83;;;0.80;;
71435;SDS011;59251;51.326;12.370;2023-12-20T14:17:28;4.53;;;0.60;;
71435;SDS011;59251;51.326;12.370;2023-12-20T14:19:57;6.05;;;1.15;;
71435;SDS011;59251;51.326;12.370;2023-12-20T14:22:23;5.13;;;0.65;;
71435;SDS011;59251;51.326;12.370;2023-12-20T14:24:50;4.93;;;0.70;;
71435;SDS011;59251;51.326;12.370;2023-12-20T14:27:17;5.87;;;0.90;;
71435;SDS011;59251;51.326;12.370;2023-12-20T14:29:46;5.13;;;0.82;;
71435;SDS011;59251;51.326;12.370;2023-12-20T14:32:13;5.35;;;0.70;;
71435;SDS011;59251;51.326;12.370;2023-12-20T14:34:41;4.55;;;0.63;;
71435;SDS011;59251;51.326;12.370;2023-12-20T14:37:08;6.07;;;0.95;;
71435;SDS011;59251;51.326;12.370;2023-12-20T14:39:35;5.13;;;0.63;;